sensor_id;sensor_type;location;lat;lon;timestamp;temperature;humidity
40952;DHT22;26682;51.660;19.338;2022-07-29T00:00:27;14.70;99.90
40952;DHT22;26682;51.660;19.338;2022-07-29T00:02:22;14.70;99.90
40952;DHT22;26682;51.660;19.338;2022-07-29T00:04:08;14.60;99.90
40952;DHT22;26682;51.660;19.338;2022-07-29T00:05:54;14.60;99.90
40952;DHT22;26682;51.660;19.338;2022-07-29T00:07:40;14.60;99.90
40952;DHT22;26682;51.660;19.338;2022-07-29T00:09:27;14.50;99.90
40952;DHT22;26682;51.660;19.338;2022-07-29T00:11:13;14.50;99.90
40952;DHT22;26682;51.660;19.338;2022-07-29T00:12:59;14.50;99.90
40952;DHT22;26682;51.660;19.338;2022-07-29T00:14:45;14.40;99.90
40952;DHT22;26682;51.660;19.338;2022-07-29T00:16:31;14.40;99.90
40952;DHT22;26682;51.660;19.338;2022-07-29T00:18:17;14.30;99.90
40952;DHT22;26682;51.660;19.338;2022-07-29T00:20:04;14.30;99.90
40952;DHT22;26682;51.660;19.338;2022-07-29T00:21:50;14.30;99.90
40952;DHT22;26682;51.660;19.338;2022-07-29T00:23:36;14.20;99.90
40952;DHT22;26682;51.660;19.338;2022-07-29T00:25:40;14.10;99.90
40952;DHT22;26682;51.660;19.338;2022-07-29T00:27:26;14.20;99.90
40952;DHT22;26682;51.660;19.338;2022-07-29T00:29:12;14.10;99.90
40952;DHT22;26682;51.660;19.338;2022-07-29T00:30:58;14.10;99.90
40952;DHT22;26682;51.660;19.338;2022-07-29T00:32:44;14.00;99.90
40952;DHT22;26682;51.660;19.338;2022-07-29T00:34:30;14.00;99.90
40952;DHT22;26682;51.660;19.338;2022-07-29T00:36:34;14.00;99.90
40952;DHT22;26682;51.660;19.338;2022-07-29T00:38:21;14.00;99.90
40952;DHT22;26682;51.660;19.338;2022-07-29T00:40:07;14.00;99.90
40952;DHT22;26682;51.660;19.338;2022-07-29T00:41:53;14.00;99.90
40952;DHT22;26682;51.660;19.338;2022-07-29T00:43:39;14.00;99.90
40952;DHT22;26682;51.660;19.338;2022-07-29T00:45:26;14.00;99.90
40952;DHT22;26682;51.660;19.338;2022-07-29T00:47:12;14.00;99.90
40952;DHT22;26682;51.660;19.338;2022-07-29T00:48:58;13.90;99.90
40952;DHT22;26682;51.660;19.338;2022-07-29T00:50:44;13.90;99.90
40952;DHT22;26682;51.660;19.338;2022-07-29T00:52:30;13.90;99.90
40952;DHT22;26682;51.660;19.338;2022-07-29T00:54:16;13.90;99.90
40952;DHT22;26682;51.660;19.338;2022-07-29T00:56:02;13.90;99.90
40952;DHT22;26682;51.660;19.338;2022-07-29T00:57:48;13.90;99.90
40952;DHT22;26682;51.660;19.338;2022-07-29T00:59:35;13.90;99.90
40952;DHT22;26682;51.660;19.338;2022-07-29T01:01:21;13.90;99.90
40952;DHT22;26682;51.660;19.338;2022-07-29T01:03:07;13.90;99.90
40952;DHT22;26682;51.660;19.338;2022-07-29T01:04:53;13.80;99.90
40952;DHT22;26682;51.660;19.338;2022-07-29T01:06:41;13.80;99.90
40952;DHT22;26682;51.660;19.338;2022-07-29T01:08:28;13.70;99.90
40952;DHT22;26682;51.660;19.338;2022-07-29T01:10:16;13.70;99.90
40952;DHT22;26682;51.660;19.338;2022-07-29T01:12:02;13.70;99.90
40952;DHT22;26682;51.660;19.338;2022-07-29T01:13:49;13.70;99.90
40952;DHT22;26682;51.660;19.338;2022-07-29T01:15:43;13.70;99.90
40952;DHT22;26682;51.660;19.338;2022-07-29T01:17:36;13.70;99.90
40952;DHT22;26682;51.660;19.338;2022-07-29T01:21:43;13.70;99.90
40952;DHT22;26682;51.660;19.338;2022-07-29T01:25:58;13.70;99.90
40952;DHT22;26682;51.660;19.338;2022-07-29T01:28:06;13.80;99.90
40952;DHT22;26682;51.660;19.338;2022-07-29T01:29:57;13.80;99.90
40952;DHT22;26682;51.660;19.338;2022-07-29T01:34:00;13.90;99.90
40952;DHT22;26682;51.660;19.338;2022-07-29T01:35:47;13.80;99.90
40952;DHT22;26682;51.660;19.338;2022-07-29T01:37:52;13.80;99.90
40952;DHT22;26682;51.660;19.338;2022-07-29T01:39:41;13.80;99.90
40952;DHT22;26682;51.660;19.338;2022-07-29T01:41:32;13.80;99.90
40952;DHT22;26682;51.660;19.338;2022-07-29T01:43:23;13.80;99.90
40952;DHT22;26682;51.660;19.338;2022-07-29T01:45:18;13.80;99.90
40952;DHT22;26682;51.660;19.338;2022-07-29T01:47:11;13.80;99.90
40952;DHT22;26682;51.660;19.338;2022-07-29T01:49:06;13.80;99.90
40952;DHT22;26682;51.660;19.338;2022-07-29T01:51:01;13.70;99.90
40952;DHT22;26682;51.660;19.338;2022-07-29T01:53:01;13.70;99.90
40952;DHT22;26682;51.660;19.338;2022-07-29T01:54:53;13.70;99.90
40952;DHT22;26682;51.660;19.338;2022-07-29T01:56:42;13.70;99.90
40952;DHT22;26682;51.660;19.338;2022-07-29T01:58:31;13.70;99.90
40952;DHT22;26682;51.660;19.338;2022-07-29T02:00:18;13.80;99.90
40952;DHT22;26682;51.660;19.338;2022-07-29T02:02:06;13.80;99.90
40952;DHT22;26682;51.660;19.338;2022-07-29T02:03:54;13.80;99.90
40952;DHT22;26682;51.660;19.338;2022-07-29T02:05:44;13.80;99.90
40952;DHT22;26682;51.660;19.338;2022-07-29T02:07:32;13.90;99.90
40952;DHT22;26682;51.660;19.338;2022-07-29T02:09:19;13.80;99.90
40952;DHT22;26682;51.660;19.338;2022-07-29T02:11:07;13.90;99.90
40952;DHT22;26682;51.660;19.338;2022-07-29T02:12:54;13.90;99.90
40952;DHT22;26682;51.660;19.338;2022-07-29T02:14:44;13.90;99.90
40952;DHT22;26682;51.660;19.338;2022-07-29T02:16:32;13.80;99.90
40952;DHT22;26682;51.660;19.338;2022-07-29T02:18:20;13.80;99.90
40952;DHT22;26682;51.660;19.338;2022-07-29T02:20:09;13.80;99.90
40952;DHT22;26682;51.660;19.338;2022-07-29T02:21:56;13.80;99.90
40952;DHT22;26682;51.660;19.338;2022-07-29T02:23:44;13.80;99.90
40952;DHT22;26682;51.660;19.338;2022-07-29T02:25:31;13.70;99.90
40952;DHT22;26682;51.660;19.338;2022-07-29T02:27:18;13.70;99.90
40952;DHT22;26682;51.660;19.338;2022-07-29T02:29:05;13.70;99.90
40952;DHT22;26682;51.660;19.338;2022-07-29T02:30:53;13.70;99.90
40952;DHT22;26682;51.660;19.338;2022-07-29T02:32:41;13.70;99.90
40952;DHT22;26682;51.660;19.338;2022-07-29T02:34:29;13.70;99.90
40952;DHT22;26682;51.660;19.338;2022-07-29T02:36:16;13.60;99.90
40952;DHT22;26682;51.660;19.338;2022-07-29T02:38:03;13.50;99.90
40952;DHT22;26682;51.660;19.338;2022-07-29T02:40:10;13.40;99.90
40952;DHT22;26682;51.660;19.338;2022-07-29T02:42:03;13.40;99.90
40952;DHT22;26682;51.660;19.338;2022-07-29T02:43:55;13.30;99.90
40952;DHT22;26682;51.660;19.338;2022-07-29T02:45:42;13.30;99.90
40952;DHT22;26682;51.660;19.338;2022-07-29T02:47:39;13.30;99.90
40952;DHT22;26682;51.660;19.338;2022-07-29T02:51:44;13.20;99.90
40952;DHT22;26682;51.660;19.338;2022-07-29T02:53:33;13.10;99.90
40952;DHT22;26682;51.660;19.338;2022-07-29T02:55:26;13.10;99.90
40952;DHT22;26682;51.660;19.338;2022-07-29T02:59:33;13.00;99.90
40952;DHT22;26682;51.660;19.338;2022-07-29T03:01:24;12.90;99.90
40952;DHT22;26682;51.660;19.338;2022-07-29T03:03:16;12.90;99.90
40952;DHT22;26682;51.660;19.338;2022-07-29T03:05:04;12.90;99.90
40952;DHT22;26682;51.660;19.338;2022-07-29T03:06:53;12.80;99.90
40952;DHT22;26682;51.660;19.338;2022-07-29T03:08:40;12.80;99.90
40952;DHT22;26682;51.660;19.338;2022-07-29T03:10:27;12.80;99.90
40952;DHT22;26682;51.660;19.338;2022-07-29T03:12:14;12.80;99.90
40952;DHT22;26682;51.660;19.338;2022-07-29T03:14:01;12.80;99.90
40952;DHT22;26682;51.660;19.338;2022-07-29T03:15:47;12.80;99.90
40952;DHT22;26682;51.660;19.338;2022-07-29T03:17:33;12.80;99.90
40952;DHT22;26682;51.660;19.338;2022-07-29T03:19:20;12.70;99.90
40952;DHT22;26682;51.660;19.338;2022-07-29T03:21:06;12.70;99.90
40952;DHT22;26682;51.660;19.338;2022-07-29T03:22:52;12.80;99.90
40952;DHT22;26682;51.660;19.338;2022-07-29T03:24:38;12.70;99.90
40952;DHT22;26682;51.660;19.338;2022-07-29T03:26:24;12.80;99.90
40952;DHT22;26682;51.660;19.338;2022-07-29T03:28:11;12.80;99.90
40952;DHT22;26682;51.660;19.338;2022-07-29T03:29:57;12.80;99.90
40952;DHT22;26682;51.660;19.338;2022-07-29T03:31:43;12.90;99.90
40952;DHT22;26682;51.660;19.338;2022-07-29T03:33:29;13.00;99.90
40952;DHT22;26682;51.660;19.338;2022-07-29T03:35:16;13.10;99.90
40952;DHT22;26682;51.660;19.338;2022-07-29T03:37:02;13.10;99.90
40952;DHT22;26682;51.660;19.338;2022-07-29T03:38:48;13.20;99.90
40952;DHT22;26682;51.660;19.338;2022-07-29T03:40:55;13.30;99.90
40952;DHT22;26682;51.660;19.338;2022-07-29T03:42:42;13.40;99.90
40952;DHT22;26682;51.660;19.338;2022-07-29T03:44:30;13.40;99.90
40952;DHT22;26682;51.660;19.338;2022-07-29T03:46:17;13.50;99.90
40952;DHT22;26682;51.660;19.338;2022-07-29T03:48:09;13.50;99.90
40952;DHT22;26682;51.660;19.338;2022-07-29T03:50:00;13.60;99.90
40952;DHT22;26682;51.660;19.338;2022-07-29T03:51:47;13.60;99.90
40952;DHT22;26682;51.660;19.338;2022-07-29T03:53:33;13.70;99.90
40952;DHT22;26682;51.660;19.338;2022-07-29T03:55:21;13.80;99.90
40952;DHT22;26682;51.660;19.338;2022-07-29T03:57:09;13.80;99.90
40952;DHT22;26682;51.660;19.338;2022-07-29T03:58:56;13.90;99.90
40952;DHT22;26682;51.660;19.338;2022-07-29T04:00:42;14.00;99.90
40952;DHT22;26682;51.660;19.338;2022-07-29T04:02:29;14.10;99.90
40952;DHT22;26682;51.660;19.338;2022-07-29T04:04:16;14.20;99.90
40952;DHT22;26682;51.660;19.338;2022-07-29T04:06:04;14.30;99.90
40952;DHT22;26682;51.660;19.338;2022-07-29T04:07:51;14.40;99.90
40952;DHT22;26682;51.660;19.338;2022-07-29T04:09:37;14.40;99.90
40952;DHT22;26682;51.660;19.338;2022-07-29T04:11:23;14.40;99.90
40952;DHT22;26682;51.660;19.338;2022-07-29T04:13:09;14.40;99.90
40952;DHT22;26682;51.660;19.338;2022-07-29T04:14:55;14.50;99.90
40952;DHT22;26682;51.660;19.338;2022-07-29T04:16:41;14.50;99.90
40952;DHT22;26682;51.660;19.338;2022-07-29T04:18:27;14.60;99.90
40952;DHT22;26682;51.660;19.338;2022-07-29T04:20:13;14.60;99.90
40952;DHT22;26682;51.660;19.338;2022-07-29T04:22:00;14.60;99.90
40952;DHT22;26682;51.660;19.338;2022-07-29T04:23:46;14.70;99.90
40952;DHT22;26682;51.660;19.338;2022-07-29T04:25:39;14.70;99.90
40952;DHT22;26682;51.660;19.338;2022-07-29T04:27:25;14.80;99.90
40952;DHT22;26682;51.660;19.338;2022-07-29T04:29:11;14.90;99.90
40952;DHT22;26682;51.660;19.338;2022-07-29T04:30:59;14.90;99.90
40952;DHT22;26682;51.660;19.338;2022-07-29T04:32:45;15.00;99.90
40952;DHT22;26682;51.660;19.338;2022-07-29T04:34:31;15.00;99.90
40952;DHT22;26682;51.660;19.338;2022-07-29T04:36:17;15.10;99.90
40952;DHT22;26682;51.660;19.338;2022-07-29T04:38:04;15.20;99.90
40952;DHT22;26682;51.660;19.338;2022-07-29T04:39:50;15.40;99.90
40952;DHT22;26682;51.660;19.338;2022-07-29T04:41:36;15.50;99.90
40952;DHT22;26682;51.660;19.338;2022-07-29T04:43:23;15.70;99.90
40952;DHT22;26682;51.660;19.338;2022-07-29T04:45:10;15.70;99.90
40952;DHT22;26682;51.660;19.338;2022-07-29T04:46:57;15.90;99.90
40952;DHT22;26682;51.660;19.338;2022-07-29T04:48:45;16.00;99.90
40952;DHT22;26682;51.660;19.338;2022-07-29T04:50:32;16.20;99.90
40952;DHT22;26682;51.660;19.338;2022-07-29T04:52:18;16.30;99.90
40952;DHT22;26682;51.660;19.338;2022-07-29T04:54:04;16.40;99.90
40952;DHT22;26682;51.660;19.338;2022-07-29T04:55:50;16.60;99.90
40952;DHT22;26682;51.660;19.338;2022-07-29T04:57:36;16.80;99.90
40952;DHT22;26682;51.660;19.338;2022-07-29T04:59:22;17.00;99.90
40952;DHT22;26682;51.660;19.338;2022-07-29T05:01:08;17.20;99.90
40952;DHT22;26682;51.660;19.338;2022-07-29T05:02:54;17.50;99.90
40952;DHT22;26682;51.660;19.338;2022-07-29T05:04:40;17.70;99.90
40952;DHT22;26682;51.660;19.338;2022-07-29T05:06:26;18.10;99.90
40952;DHT22;26682;51.660;19.338;2022-07-29T05:08:12;18.40;99.90
40952;DHT22;26682;51.660;19.338;2022-07-29T05:09:58;18.70;99.90
40952;DHT22;26682;51.660;19.338;2022-07-29T05:11:44;18.90;99.90
40952;DHT22;26682;51.660;19.338;2022-07-29T05:13:30;19.20;99.90
40952;DHT22;26682;51.660;19.338;2022-07-29T05:15:16;19.50;99.90
40952;DHT22;26682;51.660;19.338;2022-07-29T05:17:04;19.70;99.90
40952;DHT22;26682;51.660;19.338;2022-07-29T05:18:50;20.10;99.90
40952;DHT22;26682;51.660;19.338;2022-07-29T05:20:36;20.30;99.90
40952;DHT22;26682;51.660;19.338;2022-07-29T05:22:22;20.60;99.90
40952;DHT22;26682;51.660;19.338;2022-07-29T05:24:08;20.80;99.90
40952;DHT22;26682;51.660;19.338;2022-07-29T05:25:54;21.00;99.90
40952;DHT22;26682;51.660;19.338;2022-07-29T05:27:40;21.10;99.90
40952;DHT22;26682;51.660;19.338;2022-07-29T05:29:26;21.20;99.90
40952;DHT22;26682;51.660;19.338;2022-07-29T05:31:12;21.20;99.90
40952;DHT22;26682;51.660;19.338;2022-07-29T05:33:00;21.20;99.90
40952;DHT22;26682;51.660;19.338;2022-07-29T05:34:46;21.10;99.90
40952;DHT22;26682;51.660;19.338;2022-07-29T05:36:31;21.00;99.90
40952;DHT22;26682;51.660;19.338;2022-07-29T05:38:17;21.20;99.90
40952;DHT22;26682;51.660;19.338;2022-07-29T05:40:04;21.20;99.90
40952;DHT22;26682;51.660;19.338;2022-07-29T05:41:50;21.20;99.90
40952;DHT22;26682;51.660;19.338;2022-07-29T05:43:36;21.20;99.90
40952;DHT22;26682;51.660;19.338;2022-07-29T05:45:22;21.40;99.90
40952;DHT22;26682;51.660;19.338;2022-07-29T05:47:09;21.50;99.90
40952;DHT22;26682;51.660;19.338;2022-07-29T05:48:55;21.70;99.90
40952;DHT22;26682;51.660;19.338;2022-07-29T05:50:41;21.60;99.90
40952;DHT22;26682;51.660;19.338;2022-07-29T05:52:34;21.60;99.90
40952;DHT22;26682;51.660;19.338;2022-07-29T05:54:20;21.60;99.90
40952;DHT22;26682;51.660;19.338;2022-07-29T05:56:07;21.60;99.90
40952;DHT22;26682;51.660;19.338;2022-07-29T05:57:53;21.50;99.90
40952;DHT22;26682;51.660;19.338;2022-07-29T05:59:39;21.60;99.90
40952;DHT22;26682;51.660;19.338;2022-07-29T06:01:25;21.70;99.90
40952;DHT22;26682;51.660;19.338;2022-07-29T06:03:11;21.70;99.90
40952;DHT22;26682;51.660;19.338;2022-07-29T06:04:58;22.00;99.90
40952;DHT22;26682;51.660;19.338;2022-07-29T06:06:44;22.20;99.90
40952;DHT22;26682;51.660;19.338;2022-07-29T06:08:30;22.30;99.90
40952;DHT22;26682;51.660;19.338;2022-07-29T06:10:16;22.30;99.90
40952;DHT22;26682;51.660;19.338;2022-07-29T06:12:02;22.50;99.90
40952;DHT22;26682;51.660;19.338;2022-07-29T06:13:48;22.60;99.90
40952;DHT22;26682;51.660;19.338;2022-07-29T06:15:34;22.60;99.90
40952;DHT22;26682;51.660;19.338;2022-07-29T06:17:21;22.70;99.90
40952;DHT22;26682;51.660;19.338;2022-07-29T06:19:06;22.90;99.90
40952;DHT22;26682;51.660;19.338;2022-07-29T06:20:53;23.00;99.90
40952;DHT22;26682;51.660;19.338;2022-07-29T06:22:39;23.00;99.90
40952;DHT22;26682;51.660;19.338;2022-07-29T06:24:25;23.10;99.90
40952;DHT22;26682;51.660;19.338;2022-07-29T06:26:11;23.20;99.90
40952;DHT22;26682;51.660;19.338;2022-07-29T06:27:57;23.20;99.90
40952;DHT22;26682;51.660;19.338;2022-07-29T06:29:43;23.20;99.60
40952;DHT22;26682;51.660;19.338;2022-07-29T06:31:29;23.10;99.90
40952;DHT22;26682;51.660;19.338;2022-07-29T06:33:18;23.10;99.90
40952;DHT22;26682;51.660;19.338;2022-07-29T06:35:05;23.30;99.90
40952;DHT22;26682;51.660;19.338;2022-07-29T06:36:51;23.50;99.90
40952;DHT22;26682;51.660;19.338;2022-07-29T06:38:38;23.60;99.90
40952;DHT22;26682;51.660;19.338;2022-07-29T06:40:24;23.60;99.80
40952;DHT22;26682;51.660;19.338;2022-07-29T06:42:28;23.50;99.10
40952;DHT22;26682;51.660;19.338;2022-07-29T06:44:15;23.20;99.20
40952;DHT22;26682;51.660;19.338;2022-07-29T06:46:04;22.90;99.90
40952;DHT22;26682;51.660;19.338;2022-07-29T06:47:50;22.90;99.90
40952;DHT22;26682;51.660;19.338;2022-07-29T06:49:36;22.90;99.50
40952;DHT22;26682;51.660;19.338;2022-07-29T06:51:22;22.90;99.80
40952;DHT22;26682;51.660;19.338;2022-07-29T06:53:08;23.00;99.20
40952;DHT22;26682;51.660;19.338;2022-07-29T06:54:54;23.10;99.00
40952;DHT22;26682;51.660;19.338;2022-07-29T06:56:40;23.20;99.60
40952;DHT22;26682;51.660;19.338;2022-07-29T06:58:28;23.20;98.80
40952;DHT22;26682;51.660;19.338;2022-07-29T07:00:14;23.30;98.60
40952;DHT22;26682;51.660;19.338;2022-07-29T07:02:00;23.40;99.00
40952;DHT22;26682;51.660;19.338;2022-07-29T07:03:47;23.50;98.40
40952;DHT22;26682;51.660;19.338;2022-07-29T07:05:33;23.40;98.20
40952;DHT22;26682;51.660;19.338;2022-07-29T07:07:19;23.40;97.90
40952;DHT22;26682;51.660;19.338;2022-07-29T07:09:05;23.30;98.20
40952;DHT22;26682;51.660;19.338;2022-07-29T07:10:51;23.40;98.30
40952;DHT22;26682;51.660;19.338;2022-07-29T07:12:37;23.60;98.60
40952;DHT22;26682;51.660;19.338;2022-07-29T07:14:23;23.80;97.60
40952;DHT22;26682;51.660;19.338;2022-07-29T07:16:12;23.70;96.90
40952;DHT22;26682;51.660;19.338;2022-07-29T07:17:57;23.60;97.40
40952;DHT22;26682;51.660;19.338;2022-07-29T07:19:43;23.60;97.30
40952;DHT22;26682;51.660;19.338;2022-07-29T07:21:32;23.70;97.10
40952;DHT22;26682;51.660;19.338;2022-07-29T07:23:18;23.70;95.70
40952;DHT22;26682;51.660;19.338;2022-07-29T07:25:04;23.90;95.70
40952;DHT22;26682;51.660;19.338;2022-07-29T07:26:50;24.00;95.20
40952;DHT22;26682;51.660;19.338;2022-07-29T07:28:36;23.70;94.90
40952;DHT22;26682;51.660;19.338;2022-07-29T07:30:22;23.50;95.00
40952;DHT22;26682;51.660;19.338;2022-07-29T07:32:08;23.70;95.20
40952;DHT22;26682;51.660;19.338;2022-07-29T07:33:54;24.00;95.00
40952;DHT22;26682;51.660;19.338;2022-07-29T07:35:41;23.70;94.80
40952;DHT22;26682;51.660;19.338;2022-07-29T07:37:27;23.90;95.40
40952;DHT22;26682;51.660;19.338;2022-07-29T07:39:13;23.90;94.00
40952;DHT22;26682;51.660;19.338;2022-07-29T07:40:59;24.20;94.30
40952;DHT22;26682;51.660;19.338;2022-07-29T07:42:45;24.00;93.80
40952;DHT22;26682;51.660;19.338;2022-07-29T07:44:31;24.00;93.50
40952;DHT22;26682;51.660;19.338;2022-07-29T07:46:17;23.80;93.40
40952;DHT22;26682;51.660;19.338;2022-07-29T07:48:04;23.70;93.40
40952;DHT22;26682;51.660;19.338;2022-07-29T07:49:50;23.50;93.40
40952;DHT22;26682;51.660;19.338;2022-07-29T07:51:36;23.40;94.00
40952;DHT22;26682;51.660;19.338;2022-07-29T07:53:22;23.40;93.80
40952;DHT22;26682;51.660;19.338;2022-07-29T07:55:08;23.40;93.50
40952;DHT22;26682;51.660;19.338;2022-07-29T07:56:54;23.40;93.30
40952;DHT22;26682;51.660;19.338;2022-07-29T07:58:40;23.40;93.10
40952;DHT22;26682;51.660;19.338;2022-07-29T08:00:26;23.30;93.40
40952;DHT22;26682;51.660;19.338;2022-07-29T08:02:12;23.20;93.70
40952;DHT22;26682;51.660;19.338;2022-07-29T08:03:58;23.10;93.80
40952;DHT22;26682;51.660;19.338;2022-07-29T08:05:44;23.20;94.20
40952;DHT22;26682;51.660;19.338;2022-07-29T08:07:32;23.40;94.60
40952;DHT22;26682;51.660;19.338;2022-07-29T08:09:17;23.40;92.60
40952;DHT22;26682;51.660;19.338;2022-07-29T08:11:03;23.40;92.80
40952;DHT22;26682;51.660;19.338;2022-07-29T08:12:49;23.40;92.90
40952;DHT22;26682;51.660;19.338;2022-07-29T08:14:35;23.40;93.40
40952;DHT22;26682;51.660;19.338;2022-07-29T08:16:22;23.50;93.00
40952;DHT22;26682;51.660;19.338;2022-07-29T08:18:08;23.50;92.50
40952;DHT22;26682;51.660;19.338;2022-07-29T08:19:54;23.60;92.50
40952;DHT22;26682;51.660;19.338;2022-07-29T08:21:40;23.60;92.70
40952;DHT22;26682;51.660;19.338;2022-07-29T08:23:26;23.60;93.40
40952;DHT22;26682;51.660;19.338;2022-07-29T08:25:24;23.60;93.00
40952;DHT22;26682;51.660;19.338;2022-07-29T08:27:11;23.80;92.70
40952;DHT22;26682;51.660;19.338;2022-07-29T08:28:57;23.70;92.70
40952;DHT22;26682;51.660;19.338;2022-07-29T08:30:43;23.70;92.60
40952;DHT22;26682;51.660;19.338;2022-07-29T08:32:29;23.80;92.70
40952;DHT22;26682;51.660;19.338;2022-07-29T08:34:17;23.90;93.40
40952;DHT22;26682;51.660;19.338;2022-07-29T08:36:03;23.90;92.90
40952;DHT22;26682;51.660;19.338;2022-07-29T08:37:49;23.90;92.20
40952;DHT22;26682;51.660;19.338;2022-07-29T08:39:35;23.90;91.80
40952;DHT22;26682;51.660;19.338;2022-07-29T08:41:21;23.90;91.80
40952;DHT22;26682;51.660;19.338;2022-07-29T08:43:08;23.90;91.50
40952;DHT22;26682;51.660;19.338;2022-07-29T08:44:54;24.00;92.10
40952;DHT22;26682;51.660;19.338;2022-07-29T08:46:41;24.10;92.90
40952;DHT22;26682;51.660;19.338;2022-07-29T08:48:26;24.20;91.90
40952;DHT22;26682;51.660;19.338;2022-07-29T08:50:12;24.40;92.10
40952;DHT22;26682;51.660;19.338;2022-07-29T08:52:00;24.50;91.10
40952;DHT22;26682;51.660;19.338;2022-07-29T08:53:47;24.50;91.40
40952;DHT22;26682;51.660;19.338;2022-07-29T08:55:34;24.70;90.80
40952;DHT22;26682;51.660;19.338;2022-07-29T08:57:21;24.90;90.40
40952;DHT22;26682;51.660;19.338;2022-07-29T08:59:08;24.90;89.60
40952;DHT22;26682;51.660;19.338;2022-07-29T09:00:56;24.90;87.70
40952;DHT22;26682;51.660;19.338;2022-07-29T09:02:45;24.90;85.50
40952;DHT22;26682;51.660;19.338;2022-07-29T09:04:34;24.80;87.60
40952;DHT22;26682;51.660;19.338;2022-07-29T09:06:21;24.90;86.50
40952;DHT22;26682;51.660;19.338;2022-07-29T09:08:08;24.80;84.60
40952;DHT22;26682;51.660;19.338;2022-07-29T09:09:55;24.70;85.10
40952;DHT22;26682;51.660;19.338;2022-07-29T09:11:42;24.50;84.80
40952;DHT22;26682;51.660;19.338;2022-07-29T09:13:28;24.60;82.20
40952;DHT22;26682;51.660;19.338;2022-07-29T09:15:14;24.50;81.50
40952;DHT22;26682;51.660;19.338;2022-07-29T09:17:00;24.50;81.10
40952;DHT22;26682;51.660;19.338;2022-07-29T09:18:46;24.60;81.60
40952;DHT22;26682;51.660;19.338;2022-07-29T09:20:32;24.80;83.20
40952;DHT22;26682;51.660;19.338;2022-07-29T09:22:56;24.80;81.90
40952;DHT22;26682;51.660;19.338;2022-07-29T09:24:46;24.80;79.90
40952;DHT22;26682;51.660;19.338;2022-07-29T09:26:35;24.80;80.10
40952;DHT22;26682;51.660;19.338;2022-07-29T09:28:21;24.60;79.20
40952;DHT22;26682;51.660;19.338;2022-07-29T09:30:10;24.40;79.70
40952;DHT22;26682;51.660;19.338;2022-07-29T09:31:56;24.50;80.80
40952;DHT22;26682;51.660;19.338;2022-07-29T09:33:42;24.50;79.40
40952;DHT22;26682;51.660;19.338;2022-07-29T09:35:29;24.30;81.40
40952;DHT22;26682;51.660;19.338;2022-07-29T09:37:28;24.20;81.20
40952;DHT22;26682;51.660;19.338;2022-07-29T09:39:17;24.30;82.60
40952;DHT22;26682;51.660;19.338;2022-07-29T09:41:11;24.20;82.40
40952;DHT22;26682;51.660;19.338;2022-07-29T09:43:10;24.00;81.80
40952;DHT22;26682;51.660;19.338;2022-07-29T09:44:56;24.00;82.60
40952;DHT22;26682;51.660;19.338;2022-07-29T09:46:59;24.00;83.10
40952;DHT22;26682;51.660;19.338;2022-07-29T09:49:26;24.20;83.30
40952;DHT22;26682;51.660;19.338;2022-07-29T09:51:19;24.40;83.60
40952;DHT22;26682;51.660;19.338;2022-07-29T09:53:05;24.70;81.00
40952;DHT22;26682;51.660;19.338;2022-07-29T09:54:51;24.70;80.80
40952;DHT22;26682;51.660;19.338;2022-07-29T09:56:40;24.80;79.60
40952;DHT22;26682;51.660;19.338;2022-07-29T09:58:26;24.80;78.70
40952;DHT22;26682;51.660;19.338;2022-07-29T10:00:15;24.70;79.40
40952;DHT22;26682;51.660;19.338;2022-07-29T10:02:01;24.50;80.70
40952;DHT22;26682;51.660;19.338;2022-07-29T10:03:56;24.50;80.30
40952;DHT22;26682;51.660;19.338;2022-07-29T10:05:43;24.60;81.40
40952;DHT22;26682;51.660;19.338;2022-07-29T10:07:50;24.60;80.80
40952;DHT22;26682;51.660;19.338;2022-07-29T10:09:36;24.90;80.70
40952;DHT22;26682;51.660;19.338;2022-07-29T10:11:22;25.00;79.50
40952;DHT22;26682;51.660;19.338;2022-07-29T10:13:11;25.10;78.70
40952;DHT22;26682;51.660;19.338;2022-07-29T10:14:57;25.00;78.70
40952;DHT22;26682;51.660;19.338;2022-07-29T10:16:44;25.00;78.60
40952;DHT22;26682;51.660;19.338;2022-07-29T10:18:30;24.90;77.90
40952;DHT22;26682;51.660;19.338;2022-07-29T10:20:16;24.90;78.30
40952;DHT22;26682;51.660;19.338;2022-07-29T10:22:08;25.10;77.40
40952;DHT22;26682;51.660;19.338;2022-07-29T10:23:56;25.20;77.40
40952;DHT22;26682;51.660;19.338;2022-07-29T10:25:42;25.10;74.00
40952;DHT22;26682;51.660;19.338;2022-07-29T10:27:28;25.10;75.10
40952;DHT22;26682;51.660;19.338;2022-07-29T10:29:14;25.20;74.10
40952;DHT22;26682;51.660;19.338;2022-07-29T10:31:05;25.20;75.50
40952;DHT22;26682;51.660;19.338;2022-07-29T10:42:21;24.90;70.20
40952;DHT22;26682;51.660;19.338;2022-07-29T10:44:17;24.90;71.80
40952;DHT22;26682;51.660;19.338;2022-07-29T10:46:04;24.70;71.60
40952;DHT22;26682;51.660;19.338;2022-07-29T10:48:03;24.80;71.90
40952;DHT22;26682;51.660;19.338;2022-07-29T10:49:59;24.80;70.60
40952;DHT22;26682;51.660;19.338;2022-07-29T10:52:06;24.70;71.60
40952;DHT22;26682;51.660;19.338;2022-07-29T10:53:53;25.00;72.00
40952;DHT22;26682;51.660;19.338;2022-07-29T10:55:39;24.90;71.00
40952;DHT22;26682;51.660;19.338;2022-07-29T10:57:30;24.80;73.00
40952;DHT22;26682;51.660;19.338;2022-07-29T11:01:29;25.30;74.10
40952;DHT22;26682;51.660;19.338;2022-07-29T11:03:47;25.40;70.90
40952;DHT22;26682;51.660;19.338;2022-07-29T11:05:55;25.60;72.40
40952;DHT22;26682;51.660;19.338;2022-07-29T11:12:00;25.50;71.70
40952;DHT22;26682;51.660;19.338;2022-07-29T11:13:48;25.50;71.90
40952;DHT22;26682;51.660;19.338;2022-07-29T11:15:55;25.50;72.50
40952;DHT22;26682;51.660;19.338;2022-07-29T11:19:38;25.50;72.40
40952;DHT22;26682;51.660;19.338;2022-07-29T11:21:37;25.40;73.00
40952;DHT22;26682;51.660;19.338;2022-07-29T11:23:32;25.50;73.20
40952;DHT22;26682;51.660;19.338;2022-07-29T11:25:21;25.60;72.40
40952;DHT22;26682;51.660;19.338;2022-07-29T11:27:08;25.60;72.90
40952;DHT22;26682;51.660;19.338;2022-07-29T11:29:05;25.60;72.10
40952;DHT22;26682;51.660;19.338;2022-07-29T11:30:53;25.50;72.20
40952;DHT22;26682;51.660;19.338;2022-07-29T11:32:42;25.50;72.10
40952;DHT22;26682;51.660;19.338;2022-07-29T11:34:30;25.30;72.60
40952;DHT22;26682;51.660;19.338;2022-07-29T11:36:19;25.30;72.70
40952;DHT22;26682;51.660;19.338;2022-07-29T11:38:26;25.10;72.20
40952;DHT22;26682;51.660;19.338;2022-07-29T11:40:14;24.90;72.90
40952;DHT22;26682;51.660;19.338;2022-07-29T11:44:11;24.90;72.80